Time;durP1;ratioP1;P1;durP2;ratioP2;P2;SDS_P1;SDS_P2;PMS_P1;PMS_P2;Temp;Humidity;BMP_temperature;BMP_pressure;BME280_temperature;BME280_humidity;BME280_pressure;Samples;Min_cycle;Max_cycle;Signal;HPM_P1;HPM_P2
2022/03/06 00:00:58;;;;;;;26.50;12.60;;;;;-2.32;97731.60;;;;110617;1251;41648;-63
2022/03/06 00:03:27;;;;;;;26.90;12.00;;;;;-2.40;97728.60;;;;110807;1250;41156;-62
2022/03/06 00:05:57;;;;;;;25.80;12.00;;;;;-2.40;97727.20;;;;110557;1250;41377;-63
2022/03/06 00:08:27;;;;;;;23.50;10.90;;;;;-2.40;97727.00;;;;110801;1250;41983;-63
2022/03/06 00:10:57;;;;;;;19.30;10.50;;;;;-2.40;97731.80;;;;110833;1250;42306;-64
2022/03/06 00:13:27;;;;;;;20.70;10.40;;;;;-2.40;97731.00;;;;110741;1251;41152;-63
2022/03/06 00:15:56;;;;;;;18.90;9.70;;;;;-2.40;97733.60;;;;110722;1250;41185;-64
2022/03/06 00:18:26;;;;;;;18.80;9.50;;;;;-2.30;97729.40;;;;110913;1250;42227;-62
2022/03/06 00:20:58;;;;;;;21.10;9.90;;;;;-2.30;97722.60;;;;110873;1251;41634;-63
2022/03/06 00:23:28;;;;;;;18.10;9.00;;;;;-2.30;97722.20;;;;110703;1251;41152;-62
2022/03/06 00:25:58;;;;;;;21.60;10.00;;;;;-2.28;97723.80;;;;110779;1250;41136;-61
2022/03/06 00:28:29;;;;;;;20.80;10.50;;;;;-2.22;97728.60;;;;110730;1251;41604;-60
2022/03/06 00:30:59;;;;;;;24.20;10.40;;;;;-2.26;97725.00;;;;110826;1250;41161;-64
2022/03/06 00:33:28;;;;;;;20.30;10.40;;;;;-2.30;97724.00;;;;110832;1249;41351;-63
2022/03/06 00:35:58;;;;;;;20.70;10.90;;;;;-2.30;97726.00;;;;110778;1250;41591;-60
2022/03/06 00:38:28;;;;;;;21.70;11.10;;;;;-2.30;97726.40;;;;110553;1251;41843;-62
2022/03/06 00:40:58;;;;;;;22.20;11.40;;;;;-2.30;97722.60;;;;110867;1250;41624;-63
2022/03/06 00:43:30;;;;;;;20.70;10.20;;;;;-2.30;97722.40;;;;110802;1250;42552;-63
2022/03/06 00:46:00;;;;;;;25.40;10.90;;;;;-2.30;97724.60;;;;110734;1252;41769;-64
2022/03/06 00:48:29;;;;;;;22.60;10.30;;;;;-2.30;97716.40;;;;110672;1252;41138;-63
2022/03/06 00:50:59;;;;;;;19.20;9.20;;;;;-2.30;97715.00;;;;110781;1250;41213;-63
2022/03/06 00:53:30;;;;;;;22.40;9.60;;;;;-2.30;97717.60;;;;110762;1252;41642;-63
2022/03/06 00:56:00;;;;;;;20.00;10.30;;;;;-2.30;97718.00;;;;110767;1250;42404;-63
2022/03/06 00:58:30;;;;;;;23.50;10.70;;;;;-2.30;97716.00;;;;110630;1250;41929;-63
2022/03/06 01:01:00;;;;;;;22.30;10.90;;;;;-2.30;97718.20;;;;111005;1250;41788;-62
2022/03/06 01:03:30;;;;;;;20.30;9.80;;;;;-2.30;97715.40;;;;111032;1249;41124;-62
2022/03/06 01:06:00;;;;;;;20.50;9.80;;;;;-2.30;97711.40;;;;110844;1250;41147;-62
2022/03/06 01:08:29;;;;;;;23.40;9.50;;;;;-2.30;97704.80;;;;110822;1250;41266;-63
2022/03/06 01:10:59;;;;;;;19.80;9.90;;;;;-2.30;97705.00;;;;110843;1249;41257;-63
2022/03/06 01:13:29;;;;;;;20.90;9.50;;;;;-2.30;97705.40;;;;110787;1251;42388;-62
2022/03/06 01:15:59;;;;;;;18.30;8.90;;;;;-2.30;97701.60;;;;110649;1251;41911;-62
2022/03/06 01:18:33;;;;;;;19.10;9.20;;;;;-2.30;97705.60;;;;110646;1250;41255;-62
2022/03/06 01:21:03;;;;;;;17.60;8.60;;;;;-2.30;97706.00;;;;110581;1252;41269;-62
2022/03/06 01:23:35;;;;;;;21.00;9.50;;;;;-2.30;97700.60;;;;110647;1252;41142;-62
2022/03/06 01:26:05;;;;;;;20.60;10.40;;;;;-2.34;97705.60;;;;110726;1248;41493;-63
2022/03/06 01:28:36;;;;;;;19.30;10.30;;;;;-2.40;97704.60;;;;110824;1250;42342;-62
2022/03/06 01:31:05;;;;;;;20.10;9.40;;;;;-2.40;97699.00;;;;110879;1250;41420;-63
2022/03/06 01:33:35;;;;;;;19.70;9.90;;;;;-2.40;97695.00;;;;110986;1250;41157;-64
2022/03/06 01:36:05;;;;;;;16.20;8.80;;;;;-2.50;97696.00;;;;110907;1249;41145;-65
2022/03/06 01:38:34;;;;;;;18.40;8.80;;;;;-2.50;97697.40;;;;110808;1251;41140;-64
2022/03/06 01:41:05;;;;;;;21.00;9.90;;;;;-2.50;97700.60;;;;110638;1253;41274;-63
2022/03/06 01:43:36;;;;;;;22.60;10.30;;;;;-2.56;97698.40;;;;110829;1250;41155;-62
2022/03/06 01:46:06;;;;;;;20.20;10.00;;;;;-2.60;97691.20;;;;110590;1250;41212;-62
2022/03/06 01:48:36;;;;;;;20.10;9.90;;;;;-2.60;97694.20;;;;110752;1251;41943;-62
2022/03/06 01:51:07;;;;;;;18.80;9.20;;;;;-2.70;97695.00;;;;110857;1250;41144;-62
2022/03/06 01:53:37;;;;;;;20.90;10.60;;;;;-2.70;97694.60;;;;110627;1250;41267;-61
2022/03/06 01:56:09;;;;;;;24.70;12.50;;;;;-2.76;97689.80;;;;110658;1251;41156;-63
2022/03/06 01:58:40;;;;;;;22.00;11.00;;;;;-2.80;97694.80;;;;110908;1250;41205;-64
2022/03/06 02:01:10;;;;;;;23.70;11.50;;;;;-2.80;97697.60;;;;111069;1250;41156;-62
2022/03/06 02:03:40;;;;;;;22.60;11.10;;;;;-2.90;97699.00;;;;110907;1248;41252;-64
2022/03/06 02:06:10;;;;;;;25.00;11.70;;;;;-2.90;97694.20;;;;110567;1250;41276;-62
2022/03/06 02:08:41;;;;;;;23.80;11.00;;;;;-2.90;97690.40;;;;110825;1248;41595;-63
2022/03/06 02:11:11;;;;;;;22.50;11.10;;;;;-3.00;97692.60;;;;110572;1250;41284;-62
2022/03/06 02:13:43;;;;;;;20.20;10.70;;;;;-3.00;97692.60;;;;110829;1250;41250;-63
2022/03/06 02:16:13;;;;;;;24.80;11.40;;;;;-3.02;97691.20;;;;110755;1250;41443;-62
2022/03/06 02:18:43;;;;;;;26.10;11.60;;;;;-3.10;97694.80;;;;110780;1250;41967;-62
2022/03/06 02:21:14;;;;;;;;;;;;;-3.10;97694.00;;;;110797;1250;41894;-63
2022/03/06 02:23:45;;;;;;;21.60;10.40;;;;;-3.20;97694.60;;;;110917;1250;41146;-63
2022/03/06 02:26:15;;;;;;;20.70;9.70;;;;;-3.20;97701.40;;;;110882;1250;41155;-64
2022/03/06 02:28:46;;;;;;;17.90;9.40;;;;;-3.22;97691.20;;;;110840;1250;41271;-63
2022/03/06 02:31:16;;;;;;;21.40;10.70;;;;;-3.30;97694.40;;;;110754;1250;41908;-64
2022/03/06 02:33:46;;;;;;;21.00;9.50;;;;;-3.30;97696.80;;;;110631;1253;41519;-62
2022/03/06 02:36:16;;;;;;;18.30;8.80;;;;;-3.30;97701.60;;;;110944;1250;41291;-63
2022/03/06 02:38:46;;;;;;;22.50;10.10;;;;;-3.30;97708.60;;;;110908;1250;41139;-63
2022/03/06 02:41:18;;;;;;;19.40;9.20;;;;;-3.38;97706.20;;;;110818;1250;41269;-63
2022/03/06 02:43:48;;;;;;;23.60;10.40;;;;;-3.40;97712.20;;;;110987;1250;41614;-60
2022/03/06 02:46:19;;;;;;;19.80;9.30;;;;;-3.40;97715.60;;;;110344;1251;571225;-63
2022/03/06 02:48:49;;;;;;;18.10;9.60;;;;;-3.40;97710.00;;;;110852;1250;41263;-61
2022/03/06 02:51:19;;;;;;;22.20;10.40;;;;;-3.40;97705.00;;;;110816;1251;41145;-66
2022/03/06 02:53:50;;;;;;;21.90;10.70;;;;;-3.40;97705.00;;;;110830;1250;41141;-62
2022/03/06 02:56:22;;;;;;;22.60;9.80;;;;;-3.40;97708.80;;;;110656;1250;41901;-63
2022/03/06 02:58:52;;;;;;;22.70;9.90;;;;;-3.40;97713.60;;;;110811;1250;41610;-64
2022/03/06 03:01:23;;;;;;;18.70;9.80;;;;;-3.42;97713.00;;;;110656;1252;41241;-61
2022/03/06 03:03:53;;;;;;;21.10;11.10;;;;;-3.50;97711.40;;;;110569;1251;41191;-62
2022/03/06 03:06:23;;;;;;;18.40;9.50;;;;;-3.50;97718.80;;;;110708;1250;41139;-62
2022/03/06 03:08:54;;;;;;;18.50;9.00;;;;;-3.50;97718.40;;;;110886;1250;41160;-62
2022/03/06 03:11:24;;;;;;;19.60;9.80;;;;;-3.50;97717.00;;;;110699;1250;41147;-63
2022/03/06 03:13:55;;;;;;;;;;;;;-3.40;97715.00;;;;110749;1250;41856;-62
2022/03/06 03:16:26;;;;;;;20.00;9.50;;;;;-3.40;97714.80;;;;110792;1250;41614;-62
2022/03/06 03:18:57;;;;;;;20.60;9.60;;;;;-3.40;97709.80;;;;110712;1250;41391;-62
2022/03/06 03:21:28;;;;;;;20.10;10.30;;;;;-3.40;97716.40;;;;110754;1250;41152;-60
2022/03/06 03:24:00;;;;;;;19.30;9.50;;;;;-3.40;97715.60;;;;110642;1251;41401;-61
2022/03/06 03:26:30;;;;;;;20.70;9.70;;;;;-3.50;97713.60;;;;110860;1250;41857;-62
2022/03/06 03:29:01;;;;;;;18.30;9.60;;;;;-3.50;97720.60;;;;110871;1250;41245;-64
2022/03/06 03:31:31;;;;;;;19.60;10.00;;;;;-3.50;97717.60;;;;110953;1250;41258;-62
2022/03/06 03:34:01;;;;;;;23.70;10.50;;;;;-3.50;97716.80;;;;110910;1250;41800;-62
2022/03/06 03:36:32;;;;;;;20.50;9.70;;;;;-3.50;97716.80;;;;110686;1252;41155;-63
2022/03/06 03:39:03;;;;;;;20.90;9.40;;;;;-3.50;97720.60;;;;110789;1251;41610;-62
2022/03/06 03:41:34;;;;;;;22.00;9.70;;;;;-3.50;97722.60;;;;110738;1252;41251;-63
2022/03/06 03:44:04;;;;;;;18.40;9.60;;;;;-3.50;97722.40;;;;110664;1252;41161;-64
2022/03/06 03:46:34;;;;;;;18.60;8.60;;;;;-3.58;97720.00;;;;110913;1250;41174;-61
2022/03/06 03:49:04;;;;;;;19.20;9.30;;;;;-3.60;97723.60;;;;110936;1250;41600;-62
2022/03/06 03:51:34;;;;;;;17.10;8.70;;;;;-3.60;97730.60;;;;110729;1251;41285;-64
2022/03/06 03:54:04;;;;;;;17.70;8.50;;;;;-3.60;97732.60;;;;110743;1249;41656;-63
2022/03/06 03:56:35;;;;;;;19.40;8.50;;;;;-3.60;97724.00;;;;110750;1251;41258;-60
2022/03/06 03:59:06;;;;;;;20.70;10.40;;;;;-3.60;97728.00;;;;110683;1252;41607;-63
2022/03/06 04:01:35;;;;;;;21.20;9.90;;;;;-3.60;97733.60;;;;110659;1252;41146;-63
2022/03/06 04:04:06;;;;;;;20.80;10.30;;;;;-3.50;97732.00;;;;110900;1250;41273;-64
2022/03/06 04:06:36;;;;;;;22.50;11.00;;;;;-3.50;97732.80;;;;110967;1250;41507;-63
2022/03/06 04:09:05;;;;;;;21.20;9.60;;;;;-3.40;97734.60;;;;110697;1251;41131;-61
2022/03/06 04:11:35;;;;;;;20.60;10.40;;;;;-3.36;97728.60;;;;110667;1253;41140;-63
2022/03/06 04:14:05;;;;;;;22.90;10.90;;;;;-3.30;97724.60;;;;110685;1251;41150;-64
2022/03/06 04:16:36;;;;;;;20.20;9.70;;;;;-3.30;97724.80;;;;110871;1250;41409;-63
2022/03/06 04:19:07;;;;;;;21.80;9.90;;;;;-3.20;97714.20;;;;110831;1251;41271;-64
2022/03/06 04:21:37;;;;;;;19.50;9.30;;;;;-3.20;97714.20;;;;110609;1252;41906;-64
2022/03/06 04:24:07;;;;;;;20.90;8.90;;;;;-3.20;97715.00;;;;110863;1250;42565;-63
2022/03/06 04:26:38;;;;;;;19.20;9.30;;;;;-3.20;97715.60;;;;110924;1250;41255;-63
2022/03/06 04:29:08;;;;;;;20.00;9.70;;;;;-3.30;97714.80;;;;110856;1250;41147;-63
2022/03/06 04:31:38;;;;;;;22.20;10.70;;;;;-3.30;97715.80;;;;110871;1250;41157;-63
2022/03/06 04:34:08;;;;;;;20.70;10.60;;;;;-3.34;97721.00;;;;110842;1250;41254;-63
2022/03/06 04:36:38;;;;;;;21.70;9.80;;;;;-3.40;97710.60;;;;110635;1253;42541;-63
2022/03/06 04:39:08;;;;;;;18.80;9.00;;;;;-3.50;97711.00;;;;110782;1250;41134;-61
2022/03/06 04:41:38;;;;;;;18.90;8.50;;;;;-3.52;97711.80;;;;110711;1250;41432;-64
2022/03/06 04:44:08;;;;;;;18.20;8.80;;;;;-3.60;97713.40;;;;110621;1252;41264;-62
2022/03/06 04:46:39;;;;;;;17.50;8.60;;;;;-3.60;97717.00;;;;110725;1251;41351;-63
2022/03/06 04:49:09;;;;;;;18.50;8.30;;;;;-3.60;97724.60;;;;110782;1251;41498;-63
2022/03/06 04:51:39;;;;;;;20.90;9.60;;;;;-3.60;97723.60;;;;110685;1251;41152;-62
2022/03/06 04:54:09;;;;;;;16.00;7.90;;;;;-3.68;97727.80;;;;110773;1251;41147;-62
2022/03/06 04:56:38;;;;;;;17.60;8.30;;;;;-3.68;97728.40;;;;110753;1251;41191;-61
2022/03/06 04:59:09;;;;;;;20.10;9.00;;;;;-3.70;97729.60;;;;110682;1250;42428;-63
2022/03/06 05:01:38;;;;;;;20.80;9.20;;;;;-3.70;97730.00;;;;110898;1250;41164;-59
2022/03/06 05:04:09;;;;;;;17.40;8.30;;;;;-3.64;97729.80;;;;110584;1251;41137;-61
2022/03/06 05:06:38;;;;;;;20.70;9.10;;;;;-3.60;97727.60;;;;110824;1250;41171;-62
2022/03/06 05:09:07;;;;;;;20.10;9.00;;;;;-3.60;97727.00;;;;110709;1250;41142;-62
2022/03/06 05:11:37;;;;;;;19.50;8.90;;;;;-3.50;97732.00;;;;110831;1250;41261;-62
2022/03/06 05:14:08;;;;;;;20.40;8.80;;;;;-3.50;97731.60;;;;110764;1250;41798;-64
2022/03/06 05:16:37;;;;;;;;;;;;;-3.46;97731.60;;;;110743;1251;41208;-62
2022/03/06 05:19:07;;;;;;;18.00;8.20;;;;;-3.40;97735.80;;;;110968;1250;41261;-62
2022/03/06 05:21:37;;;;;;;19.00;9.00;;;;;-3.40;97738.00;;;;110813;1250;41222;-63
2022/03/06 05:24:06;;;;;;;17.30;8.40;;;;;-3.30;97733.20;;;;110629;1252;41149;-63
2022/03/06 05:26:36;;;;;;;19.00;9.30;;;;;-3.22;97734.80;;;;110841;1250;43322;-63
2022/03/06 05:29:06;;;;;;;19.10;9.40;;;;;-3.20;97734.40;;;;110742;1251;42110;-62
2022/03/06 05:31:35;;;;;;;20.90;10.10;;;;;-3.10;97733.00;;;;110676;1250;41148;-64
2022/03/06 05:34:05;;;;;;;22.30;10.10;;;;;-3.00;97731.00;;;;110839;1250;41142;-63
2022/03/06 05:36:34;;;;;;;21.90;9.90;;;;;-2.90;97736.60;;;;110698;1251;42388;-62
2022/03/06 05:39:03;;;;;;;19.00;9.40;;;;;-2.80;97734.00;;;;110747;1250;41591;-63
2022/03/06 05:41:32;;;;;;;16.70;8.80;;;;;-2.60;97728.60;;;;110607;1252;41127;-63
2022/03/06 05:44:02;;;;;;;19.60;8.70;;;;;-2.50;97731.40;;;;110796;1251;41792;-63
2022/03/06 05:46:32;;;;;;;15.70;8.60;;;;;-2.30;97729.60;;;;110709;1251;41153;-62
2022/03/06 05:49:02;;;;;;;23.20;10.30;;;;;-2.20;97732.40;;;;110993;1250;41912;-63
2022/03/06 05:51:31;;;;;;;21.70;10.30;;;;;-2.04;97731.60;;;;110783;1251;41770;-62
2022/03/06 05:54:01;;;;;;;22.50;10.90;;;;;-1.90;97729.00;;;;110981;1250;41149;-62
2022/03/06 05:56:30;;;;;;;26.50;12.70;;;;;-1.90;97735.80;;;;110955;1250;41149;-63
2022/03/06 05:59:00;;;;;;;32.70;13.50;;;;;-1.90;97737.40;;;;110770;1251;41600;-63
2022/03/06 06:01:30;;;;;;;26.30;12.70;;;;;-1.80;97730.40;;;;110694;1252;41153;-64
2022/03/06 06:04:00;;;;;;;26.50;12.60;;;;;-1.70;97736.00;;;;110873;1250;41274;-63
2022/03/06 06:06:30;;;;;;;24.10;11.50;;;;;-1.52;97735.40;;;;110629;1251;41273;-60
2022/03/06 06:08:59;;;;;;;34.30;14.60;;;;;-1.32;97737.00;;;;110628;1251;41154;-61
2022/03/06 06:11:28;;;;;;;36.50;15.50;;;;;-1.20;97730.60;;;;110921;1250;41161;-63
2022/03/06 06:13:58;;;;;;;42.10;17.20;;;;;-1.00;97728.40;;;;110886;1250;41130;-62
2022/03/06 06:16:27;;;;;;;38.30;16.60;;;;;-0.84;97722.20;;;;110856;1250;41159;-61
2022/03/06 06:18:57;;;;;;;48.00;17.90;;;;;-0.64;97729.40;;;;110605;1251;41176;-62
2022/03/06 06:21:26;;;;;;;43.90;18.50;;;;;-0.46;97731.80;;;;110658;1251;41159;-62
2022/03/06 06:23:55;;;;;;;38.70;17.50;;;;;-0.26;97724.00;;;;110810;1250;41274;-62
2022/03/06 06:26:25;;;;;;;40.00;18.50;;;;;-0.04;97722.60;;;;110737;1251;41223;-64
2022/03/06 06:28:56;;;;;;;38.90;18.10;;;;;0.20;97725.00;;;;110766;1250;41195;-60
2022/03/06 06:31:25;;;;;;;50.40;21.30;;;;;0.40;97720.40;;;;110828;1250;41158;-63
2022/03/06 06:33:56;;;;;;;45.20;20.90;;;;;0.60;97723.60;;;;111033;1250;41730;-62
2022/03/06 06:36:25;;;;;;;48.20;21.00;;;;;0.80;97725.40;;;;110806;1251;41595;-62
2022/03/06 06:38:54;;;;;;;40.40;19.80;;;;;0.90;97722.00;;;;110971;1250;41192;-62
2022/03/06 06:41:24;;;;;;;40.80;18.60;;;;;1.00;97717.40;;;;110937;1250;41356;-62
2022/03/06 06:43:54;;;;;;;34.30;16.90;;;;;1.20;97724.60;;;;110739;1251;41393;-63
2022/03/06 06:46:23;;;;;;;43.90;17.00;;;;;1.40;97723.80;;;;110839;1249;41252;-62
2022/03/06 06:48:52;;;;;;;38.90;16.90;;;;;1.70;97721.00;;;;110792;1250;42439;-62
2022/03/06 06:51:21;;;;;;;37.10;17.10;;;;;1.88;97719.00;;;;110593;1251;41849;-64
2022/03/06 06:53:50;;;;;;;41.70;18.60;;;;;2.00;97726.60;;;;110899;1251;41131;-63
2022/03/06 06:56:20;;;;;;;35.50;15.60;;;;;2.10;97723.20;;;;110640;1250;41139;-62
2022/03/06 06:58:49;;;;;;;32.90;14.80;;;;;2.20;97720.60;;;;110757;1250;41137;-62
2022/03/06 07:01:19;;;;;;;32.30;14.60;;;;;2.40;97719.00;;;;110991;1250;41266;-65
2022/03/06 07:03:48;;;;;;;31.50;14.80;;;;;2.54;97719.40;;;;110862;1250;41133;-62
2022/03/06 07:06:18;;;;;;;33.60;15.30;;;;;2.80;97721.40;;;;110790;1251;41158;-61
2022/03/06 07:08:48;;;;;;;27.40;12.20;;;;;3.06;97716.60;;;;110686;1251;41149;-63
2022/03/06 07:11:22;;;;;;;33.70;14.30;;;;;3.40;97720.40;;;;110775;1250;42458;-61
2022/03/06 07:13:52;;;;;;;25.50;12.80;;;;;3.60;97725.20;;;;110773;1251;41150;-64
2022/03/06 07:16:21;;;;;;;24.40;10.90;;;;;3.80;97715.00;;;;110959;1249;41154;-63
2022/03/06 07:18:51;;;;;;;20.00;9.50;;;;;4.10;97712.00;;;;110770;1250;41144;-64
2022/03/06 07:21:20;;;;;;;22.00;9.70;;;;;4.40;97714.60;;;;110714;1253;41152;-63
2022/03/06 07:23:49;;;;;;;17.20;7.80;;;;;4.70;97706.80;;;;110807;1251;41266;-63
2022/03/06 07:26:18;;;;;;;15.40;7.10;;;;;5.00;97711.20;;;;110932;1250;41726;-63
2022/03/06 07:28:49;;;;;;;17.90;7.90;;;;;5.28;97715.00;;;;110625;1251;41677;-62
2022/03/06 07:31:20;;;;;;;14.80;6.00;;;;;5.50;97706.60;;;;110497;1253;41154;-62
2022/03/06 07:33:53;;;;;;;9.80;4.50;;;;;5.80;97708.80;;;;110778;1250;41272;-63
2022/03/06 07:36:24;;;;;;;12.80;5.80;;;;;6.10;97710.00;;;;110771;1250;42369;-62
2022/03/06 07:39:08;;;;;;;12.20;5.30;;;;;6.30;97708.60;;;;110759;1251;41283;-64
2022/03/06 07:41:39;;;;;;;10.60;4.10;;;;;6.50;97701.40;;;;110640;1251;42199;-64
2022/03/06 07:44:10;;;;;;;10.90;4.90;;;;;6.70;97698.00;;;;110917;1251;42226;-64
2022/03/06 07:46:41;;;;;;;10.20;4.20;;;;;6.90;97700.40;;;;110596;1250;41144;-64
2022/03/06 07:49:14;;;;;;;12.30;5.10;;;;;7.00;97697.40;;;;110693;1251;41270;-65
2022/03/06 07:51:45;;;;;;;10.90;4.70;;;;;6.94;97692.20;;;;110738;1251;41150;-65
2022/03/06 07:54:17;;;;;;;11.00;4.50;;;;;7.12;97696.40;;;;110764;1251;41962;-63
2022/03/06 07:56:50;;;;;;;9.10;3.70;;;;;7.30;97697.20;;;;110770;1251;41941;-64
2022/03/06 07:59:25;;;;;;;10.50;4.20;;;;;7.50;97700.40;;;;110646;1251;41601;-65
2022/03/06 08:01:55;;;;;;;11.10;4.40;;;;;7.60;97698.20;;;;110710;1251;41147;-63
2022/03/06 08:04:27;;;;;;;9.70;4.50;;;;;7.70;97693.20;;;;110576;1251;41167;-63
2022/03/06 08:06:59;;;;;;;10.20;4.40;;;;;7.76;97689.80;;;;110737;1251;41885;-64
2022/03/06 08:09:29;;;;;;;8.50;3.80;;;;;7.90;97691.60;;;;110887;1250;41135;-63
2022/03/06 08:12:00;;;;;;;;;;;;;8.10;97690.60;;;;110781;1250;41567;-64
2022/03/06 08:14:31;;;;;;;9.10;3.70;;;;;8.28;97685.40;;;;110764;1250;41505;-64
2022/03/06 08:17:02;;;;;;;10.60;4.00;;;;;8.46;97688.80;;;;110757;1252;42355;-65
2022/03/06 08:19:35;;;;;;;11.60;4.50;;;;;8.60;97679.40;;;;110607;1251;41224;-64
2022/03/06 08:22:07;;;;;;;9.10;3.70;;;;;8.74;97673.40;;;;110824;1250;42133;-66
2022/03/06 08:24:38;;;;;;;8.70;3.70;;;;;8.88;97669.20;;;;110792;1251;41459;-61
2022/03/06 08:27:08;;;;;;;11.50;3.90;;;;;9.10;97673.80;;;;110660;1253;40730;-65
2022/03/06 08:29:38;;;;;;;9.80;4.20;;;;;9.30;97665.00;;;;110730;1253;41588;-64
2022/03/06 08:32:09;;;;;;;10.00;3.90;;;;;9.50;97660.60;;;;110645;1252;41145;-64
2022/03/06 08:34:40;;;;;;;10.70;4.10;;;;;9.70;97660.40;;;;110769;1251;41159;-64
2022/03/06 08:37:12;;;;;;;9.10;3.90;;;;;9.32;97657.20;;;;110822;1251;42075;-64
2022/03/06 08:39:41;;;;;;;10.20;4.30;;;;;9.40;97657.00;;;;110729;1251;41616;-63
2022/03/06 08:42:11;;;;;;;10.20;3.90;;;;;9.50;97651.20;;;;110704;1252;41160;-64
2022/03/06 08:44:41;;;;;;;10.50;4.10;;;;;9.38;97654.80;;;;110767;1250;41210;-64
2022/03/06 08:47:10;;;;;;;9.60;4.70;;;;;9.80;97654.40;;;;110749;1251;41907;-63
2022/03/06 08:49:39;;;;;;;10.80;4.20;;;;;10.74;97643.60;;;;110668;1253;41240;-62
2022/03/06 08:52:08;;;;;;;9.60;4.50;;;;;12.70;97623.00;;;;110608;1252;41241;-64
2022/03/06 08:54:39;;;;;;;10.10;4.10;;;;;15.50;97607.80;;;;110779;1251;41281;-66
2022/03/06 08:57:12;;;;;;;10.10;4.40;;;;;18.12;97598.20;;;;110498;1253;41266;-64
2022/03/06 08:59:42;;;;;;;9.30;4.00;;;;;20.54;97588.40;;;;110451;1253;41199;-64
2022/03/06 09:02:11;;;;;;;11.10;4.10;;;;;22.74;97581.80;;;;110714;1251;41181;-65
2022/03/06 09:04:43;;;;;;;9.00;3.90;;;;;25.08;97570.80;;;;110599;1253;42401;-64
2022/03/06 09:07:12;;;;;;;;;;;;;26.96;97571.00;;;;110508;1253;41936;-66
2022/03/06 09:09:45;;;;;;;9.70;4.10;;;;;28.84;97563.80;;;;110609;1251;41634;-65
2022/03/06 09:12:18;;;;;;;11.00;4.60;;;;;30.50;97568.60;;;;110490;1251;41266;-64
2022/03/06 09:14:50;;;;;;;8.60;4.00;;;;;30.32;97576.80;;;;110756;1250;41397;-65
2022/03/06 09:17:24;;;;;;;7.80;3.60;;;;;27.40;97575.40;;;;110832;1251;41842;-65
2022/03/06 09:19:59;;;;;;;8.90;3.90;;;;;26.92;97559.60;;;;110621;1250;41138;-65
2022/03/06 09:22:29;;;;;;;8.30;3.90;;;;;28.10;97562.40;;;;110738;1250;41195;-65
2022/03/06 09:24:59;;;;;;;9.60;3.70;;;;;29.62;97560.80;;;;110730;1250;41598;-65
2022/03/06 09:27:35;;;;;;;9.40;4.40;;;;;31.38;97553.80;;;;110792;1251;41159;-66
2022/03/06 09:30:18;;;;;;;10.10;4.40;;;;;32.10;97561.40;;;;110616;1254;41162;-65
2022/03/06 09:32:56;;;;;;;9.10;4.10;;;;;32.40;97547.60;;;;110486;1251;41188;-65
2022/03/06 09:35:29;;;;;;;9.30;4.00;;;;;33.32;97550.80;;;;110553;1253;41162;-64
2022/03/06 09:37:59;;;;;;;8.90;3.90;;;;;33.02;97571.80;;;;110897;1251;41178;-67
2022/03/06 09:40:38;;;;;;;8.60;3.50;;;;;31.18;97551.20;;;;110789;1250;41161;-66
2022/03/06 09:43:19;;;;;;;8.80;3.80;;;;;30.18;97570.60;;;;110644;1250;41164;-67
2022/03/06 09:46:02;;;;;;;8.40;4.00;;;;;28.08;97541.80;;;;110428;1250;41755;-64
2022/03/06 09:48:32;;;;;;;9.50;4.10;;;;;28.62;97541.00;;;;110912;1251;41153;-65
2022/03/06 09:51:03;;;;;;;8.30;3.80;;;;;30.64;97540.60;;;;110583;1253;42271;-65
2022/03/06 09:53:33;;;;;;;8.40;3.80;;;;;32.84;97534.00;;;;110884;1250;41966;-68
2022/03/06 09:56:02;;;;;;;8.00;3.50;;;;;34.00;97529.80;;;;110870;1251;41235;-66
2022/03/06 09:58:31;;;;;;;7.40;3.50;;;;;35.04;97529.80;;;;110687;1249;41258;-66
2022/03/06 10:01:00;;;;;;;8.50;3.90;;;;;36.06;97526.60;;;;110862;1250;41928;-65
2022/03/06 10:03:35;;;;;;;7.80;3.50;;;;;37.26;97522.00;;;;110817;1250;41169;-65
2022/03/06 10:06:05;;;;;;;8.40;3.80;;;;;37.62;97518.80;;;;110688;1250;41610;-66
2022/03/06 10:08:34;;;;;;;8.30;3.70;;;;;37.46;97519.20;;;;110668;1251;41718;-65
2022/03/06 10:11:10;;;;;;;8.70;3.70;;;;;37.80;97514.80;;;;110616;1252;41358;-65
2022/03/06 10:13:41;;;;;;;7.80;3.70;;;;;38.30;97517.00;;;;110895;1250;41574;-65
2022/03/06 10:16:17;;;;;;;9.40;3.80;;;;;38.32;97515.00;;;;110680;1250;41264;-65
2022/03/06 10:19:00;;;;;;;8.10;3.80;;;;;38.22;97533.20;;;;110829;1250;41506;-66
2022/03/06 10:21:32;;;;;;;7.50;3.50;;;;;35.10;97533.60;;;;110619;1251;41388;-65
2022/03/06 10:24:08;;;;;;;9.20;3.70;;;;;32.74;97522.40;;;;110858;1250;41683;-65
2022/03/06 10:26:43;;;;;;;7.70;3.40;;;;;33.00;97503.80;;;;110791;1250;41391;-65
2022/03/06 10:29:16;;;;;;;10.30;4.10;;;;;34.38;97497.60;;;;110826;1251;41585;-65
2022/03/06 10:31:56;;;;;;;8.40;3.60;;;;;36.28;97494.80;;;;110786;1251;41148;-66
2022/03/06 10:34:36;;;;;;;8.00;3.20;;;;;37.16;97491.80;;;;110875;1251;41283;-65
2022/03/06 10:37:06;;;;;;;;;;;;;38.62;97493.60;;;;110951;1250;41265;-66
2022/03/06 10:39:45;;;;;;;7.90;3.40;;;;;40.22;97481.40;;;;110924;1250;41265;-66
2022/03/06 10:42:23;;;;;;;7.50;3.60;;;;;39.96;97478.40;;;;110858;1250;42132;-66
2022/03/06 10:44:52;;;;;;;8.40;3.80;;;;;40.26;97471.60;;;;111000;1250;41301;-67
2022/03/06 10:47:22;;;;;;;8.20;3.60;;;;;40.60;97468.40;;;;110941;1250;41705;-66
2022/03/06 10:50:06;;;;;;;9.20;4.10;;;;;40.60;97465.00;;;;110714;1251;41155;-65
2022/03/06 10:52:42;;;;;;;8.30;3.30;;;;;40.80;97465.00;;;;110901;1251;41968;-66
2022/03/06 10:55:11;;;;;;;8.30;3.60;;;;;39.76;97459.00;;;;110827;1251;41279;-66
2022/03/06 10:57:42;;;;;;;7.70;3.30;;;;;39.60;97458.80;;;;110716;1250;41573;-65
2022/03/06 11:00:12;;;;;;;7.60;3.60;;;;;40.26;97456.60;;;;110624;1251;41144;-65
2022/03/06 11:02:41;;;;;;;7.40;3.10;;;;;41.42;97450.60;;;;110746;1251;41277;-64
2022/03/06 11:05:11;;;;;;;6.90;3.00;;;;;42.00;97446.40;;;;110584;1251;41155;-66
2022/03/06 11:07:40;;;;;;;8.00;3.10;;;;;42.54;97443.20;;;;110674;1251;41606;-66
2022/03/06 11:10:12;;;;;;;7.30;3.10;;;;;43.00;97438.80;;;;110757;1250;41282;-65
2022/03/06 11:12:47;;;;;;;7.40;3.30;;;;;43.70;97434.80;;;;111104;1250;40972;-66
2022/03/06 11:15:22;;;;;;;7.40;3.10;;;;;44.50;97432.80;;;;110927;1250;41143;-66
2022/03/06 11:17:57;;;;;;;7.10;3.10;;;;;44.88;97432.20;;;;110525;1251;41147;-66
2022/03/06 11:20:29;;;;;;;7.30;3.10;;;;;45.32;97434.20;;;;110905;1250;41893;-66
2022/03/06 11:23:17;;;;;;;8.10;3.30;;;;;45.10;97434.20;;;;110927;1251;42550;-66
2022/03/06 11:26:14;;;;;;;7.40;3.00;;;;;45.30;97427.80;;;;110837;1251;41592;-66
2022/03/06 11:28:43;;;;;;;6.30;2.90;;;;;44.20;97415.20;;;;110827;1251;41166;-66
2022/03/06 11:31:13;;;;;;;6.90;3.20;;;;;44.04;97417.60;;;;110690;1251;42245;-66
2022/03/06 11:33:43;;;;;;;5.90;2.70;;;;;43.90;97412.40;;;;110792;1248;41492;-65
2022/03/06 11:36:45;;;;;;;7.50;3.10;;;;;42.42;97413.40;;;;110951;1247;41168;-63
2022/03/06 11:39:35;;;;;;;8.00;3.00;;;;;42.66;97406.00;;;;110741;1251;42549;-65
2022/03/06 11:42:05;;;;;;;5.50;2.50;;;;;42.90;97405.40;;;;110848;1250;41294;-66
2022/03/06 11:45:00;;;;;;;6.70;2.90;;;;;42.60;97404.80;;;;110825;1250;41145;-67
2022/03/06 11:47:40;;;;;;;6.90;2.80;;;;;42.40;97398.40;;;;110915;1251;41597;-67
2022/03/06 11:50:21;;;;;;;6.40;3.00;;;;;42.40;97394.00;;;;110646;1252;41161;-66
2022/03/06 11:52:51;;;;;;;10.10;2.90;;;;;41.06;97395.00;;;;110592;1251;41414;-65
2022/03/06 11:55:31;;;;;;;7.80;3.00;;;;;41.00;97395.00;;;;110712;1251;41188;-66
2022/03/06 11:58:00;;;;;;;8.20;2.80;;;;;40.60;97391.00;;;;110741;1251;41153;-64
2022/03/06 12:00:30;;;;;;;5.90;2.70;;;;;41.00;97384.00;;;;110814;1251;41497;-64
2022/03/06 12:03:01;;;;;;;6.70;2.80;;;;;41.60;97380.20;;;;110849;1251;41196;-66
2022/03/06 12:05:54;;;;;;;6.30;2.70;;;;;42.10;97374.40;;;;110752;1249;42479;-66
2022/03/06 12:08:24;;;;;;;6.90;2.70;;;;;42.20;97368.40;;;;110764;1249;41191;-65
2022/03/06 12:10:53;;;;;;;7.60;3.20;;;;;41.48;97370.60;;;;110699;1250;41261;-65
2022/03/06 12:13:23;;;;;;;7.20;3.00;;;;;39.14;97376.00;;;;110865;1250;41222;-65
2022/03/06 12:16:13;;;;;;;7.40;3.20;;;;;33.74;97380.60;;;;110833;1251;42010;-66
2022/03/06 12:19:03;;;;;;;8.00;3.60;;;;;34.58;97375.60;;;;110471;1254;41134;-64
2022/03/06 12:21:36;;;;;;;6.90;2.90;;;;;31.64;97376.80;;;;110772;1250;41327;-65